Terminal Aerodrome Forecast
Issued by NWS Duluth, MN

Home | Current Version | Previous Version | Text Only | Print | Product List | Glossary On
Versions: 1 2 3 4 5 6 7 8 9 10 11 12 13 14 15 16 17 18 19 20 21 22 23 24 25 26 27
000
FTUS43 KDLH 200539
TAFDLH
TAF
KDLH 200539Z 2006/2106 15006KT P6SM OVC070
     FM200800 19005KT 4SM BR OVC015
     FM201100 13004KT 1SM -FZDZ BR OVC007
     FM201600 10007KT 1/2SM -RA FG OVC003
     FM202100 12008KT 1 1/2SM -RASN BR OVC003=

USA.gov is the U.S. government's official web portal to all federal, state and local government web resources and services.